Hua-yang, China
Current Conditions -  °F | °C
As of 8:00 PM on Tuesday 21 Oct 2014 (Local Time) from ZUUU Reporting Station
Clear Clear  
Wind Chill: 23°   Ceiling: Unl
Heat Index: 23°   Visibility: 6mi
Dew Point: 12°   Wind: 4mph
Humidity: 50%   Direction: 130°SE
Pressure: 30.15"   Gusts: NA
Location:  30.5°N, 104.07°E
Report Text: ZUUU 211200Z 13002MPS 050V180 CAVOK 23/12 Q1021 NOSIG
Loading
Personal Weather Stations






























Interactive Weather Map
Tropical Storm Tracking
New forecast layout! Learn more

10-Day Weather Forecast

Advertisements
Track Severe Weather on mobile